»·PEaware :: N800DW TFFJ-KOPF

N800DW :: TFFJ-KOPF

FLIGHT INFORMATION

Flight Status: Arrived
Operator: Privately registered:
United States
More flights under this callsign
Pilot: Scott L. (17677)
Aircraft: Unknown
(EPIC)
More flights by this aircraft type
Origin: TFFJ St Barthelemy Is.
Guadeloupe
Destination: KOPF Opa Locka
United States
More flights between these airports :: More routes between these airports
Route: GOUDA LARPP B520 BQN R763 HARBG R763 GTK A555 ZQA WAVUN3
File this flight plan on PilotEdge
Remarks:
Altitude:
(Current/Filed)
31,000ft
Speed:
(Current/Filed)
280kts
Departed: 31-Mar-18 03:47 AM
Arrived: 31-Mar-18 08:05 AM
Distance/Time
Traveled:
1081nm/4:18
Distance/Time
To Go:
Arrived

Flight Plot

Page will automatically refresh every two minutes.

Flight plan parsing failed; only flown route is shown


Map Options




Map Legend


Flown Route
Filed Route
Departure Airport
Arrival Airport
Navaid (VOR, NDB)
Fix

Horizontal Profiles

Position Reports

Time Latitude Longitude Heading Altitude Ground
Speed
31-Mar-18 03:45 17.904208 -62.846455 339 66ft 13kts
31-Mar-18 03:46 17.918541 -62.828630 348 2084ft 162kts
31-Mar-18 03:47 17.919684 -62.877247 250 5507ft 204kts
31-Mar-18 03:48 17.910994 -62.936237 266 9026ft 218kts
31-Mar-18 03:49 17.910775 -63.001052 270 12444ft 230kts
31-Mar-18 03:50 17.912761 -63.069072 271 15354ft 240kts
31-Mar-18 03:51 17.915291 -63.140243 271 17798ft 249kts
31-Mar-18 03:52 17.917974 -63.213958 271 19847ft 258kts
31-Mar-18 03:53 17.920724 -63.289894 271 21570ft 265kts
31-Mar-18 03:54 17.922655 -63.343641 271 22600ft 269kts
31-Mar-18 03:55 17.925470 -63.422742 271 23886ft 275kts
31-Mar-18 03:56 17.928318 -63.503772 271 24972ft 280kts
31-Mar-18 03:57 17.931170 -63.585850 271 25885ft 284kts
31-Mar-18 03:58 17.939118 -63.668303 296 26637ft 288kts
31-Mar-18 03:59 17.979743 -63.740808 301 27311ft 291kts
31-Mar-18 04:00 18.023303 -63.812961 302 27882ft 293kts
31-Mar-18 04:01 18.067454 -63.885499 302 28369ft 296kts
31-Mar-18 04:02 18.111792 -63.958345 302 28786ft 298kts
31-Mar-18 04:03 18.156593 -64.032026 302 29146ft 300kts
31-Mar-18 04:04 18.200691 -64.106477 289 29446ft 301kts
31-Mar-18 04:05 18.218460 -64.192770 280 29722ft 303kts
31-Mar-18 04:06 18.233379 -64.280007 279 29959ft 304kts
31-Mar-18 04:07 18.248006 -64.367613 279 30164ft 305kts
31-Mar-18 04:08 18.262604 -64.455515 279 30343ft 306kts
31-Mar-18 04:09 18.277215 -64.543771 279 30498ft 306kts
31-Mar-18 04:10 18.291773 -64.631974 279 30634ft 307kts
31-Mar-18 04:11 18.306306 -64.720641 279 30752ft 308kts
31-Mar-18 04:12 18.320824 -64.809548 279 30854ft 308kts
31-Mar-18 04:13 18.335278 -64.898336 279 30949ft 309kts
31-Mar-18 04:14 18.349758 -64.987557 279 31027ft 309kts
31-Mar-18 04:15 18.381345 -65.070710 298 31095ft 309kts
31-Mar-18 04:16 18.423184 -65.149684 299 31152ft 310kts
31-Mar-18 04:17 18.465514 -65.228573 299 31205ft 310kts
31-Mar-18 04:18 18.489722 -65.313563 271 31258ft 310kts
31-Mar-18 04:19 18.489760 -65.404432 268 31287ft 310kts
31-Mar-18 04:20 18.488212 -65.495069 268 31324ft 310kts
31-Mar-18 04:21 18.486440 -65.586215 268 31357ft 311kts
31-Mar-18 04:22 18.484612 -65.677136 268 31385ft 311kts
31-Mar-18 04:23 18.482739 -65.767991 268 31415ft 311kts
31-Mar-18 04:24 18.480821 -65.858966 268 31438ft 311kts
31-Mar-18 04:25 18.478865 -65.949640 268 31460ft 311kts
31-Mar-18 04:26 18.476894 -66.038964 268 32038ft 295kts
31-Mar-18 04:27 18.474926 -66.126311 268 32073ft 303kts
31-Mar-18 04:28 18.472875 -66.215683 268 32088ft 307kts
31-Mar-18 04:29 18.470762 -66.305885 268 32091ft 309kts
31-Mar-18 04:30 18.468596 -66.396498 268 32091ft 310kts
31-Mar-18 04:31 18.471322 -66.487706 272 32090ft 310kts
31-Mar-18 04:32 18.474922 -66.578325 272 32091ft 311kts
31-Mar-18 04:33 18.478769 -66.668466 272 32090ft 311kts
31-Mar-18 04:34 18.482713 -66.759776 272 32090ft 311kts
31-Mar-18 04:35 18.486632 -66.850868 272 32090ft 311kts
31-Mar-18 04:36 18.490654 -66.941729 272 32090ft 311kts
31-Mar-18 04:37 18.494643 -67.032596 272 32090ft 311kts
31-Mar-18 04:38 18.511400 -67.120074 302 32090ft 311kts
31-Mar-18 04:39 18.562473 -67.193184 307 32090ft 311kts
31-Mar-18 04:40 18.615900 -67.264613 308 32090ft 311kts
31-Mar-18 04:41 18.669657 -67.336034 308 32090ft 311kts
31-Mar-18 04:42 18.723456 -67.407536 308 32090ft 311kts
31-Mar-18 04:43 18.777192 -67.479030 308 32090ft 311kts
31-Mar-18 04:44 18.830689 -67.550287 308 32090ft 311kts
31-Mar-18 04:45 18.884441 -67.621965 308 32090ft 311kts
31-Mar-18 04:46 18.938001 -67.693465 307 32090ft 311kts
31-Mar-18 04:47 18.991585 -67.765081 307 32090ft 311kts
31-Mar-18 04:48 19.045204 -67.836833 307 32076ft 312kts
31-Mar-18 04:49 19.098908 -67.908785 307 32072ft 312kts
31-Mar-18 04:50 19.152383 -67.980514 307 32072ft 311kts
31-Mar-18 04:51 19.205951 -68.052451 307 32072ft 311kts
31-Mar-18 04:52 19.259566 -68.124535 307 32072ft 311kts
31-Mar-18 04:53 19.313128 -68.196634 307 32072ft 311kts
31-Mar-18 04:54 19.366478 -68.268531 307 32072ft 311kts
31-Mar-18 04:55 19.419931 -68.340654 307 32072ft 311kts
31-Mar-18 04:56 19.473389 -68.412868 307 32072ft 311kts
31-Mar-18 04:57 19.526888 -68.485225 307 32072ft 311kts
31-Mar-18 04:58 19.580329 -68.557592 307 32094ft 311kts
31-Mar-18 04:59 19.633469 -68.629637 307 32100ft 311kts
31-Mar-18 05:00 19.686041 -68.700994 307 32100ft 311kts
31-Mar-18 05:01 19.739276 -68.773340 307 32100ft 311kts
31-Mar-18 05:02 19.783650 -68.833712 307 32100ft 311kts
31-Mar-18 05:03 19.837013 -68.906393 307 32100ft 311kts
31-Mar-18 05:04 19.890094 -68.978784 307 32127ft 311kts
31-Mar-18 05:05 19.943143 -69.051224 307 32127ft 311kts
31-Mar-18 05:06 19.996296 -69.123895 307 32127ft 311kts
31-Mar-18 05:07 20.049498 -69.196723 307 32127ft 312kts
31-Mar-18 05:08 20.102688 -69.269626 307 32127ft 312kts
31-Mar-18 05:09 20.155857 -69.342585 307 32127ft 312kts
31-Mar-18 05:10 20.208946 -69.415528 307 32127ft 312kts
31-Mar-18 05:11 20.262058 -69.488596 307 32127ft 312kts
31-Mar-18 05:12 20.315058 -69.561600 307 32127ft 312kts
31-Mar-18 05:13 20.368173 -69.634856 307 32127ft 312kts
31-Mar-18 05:14 20.420946 -69.707733 307 32100ft 312kts
31-Mar-18 05:15 20.474068 -69.781183 307 32100ft 312kts
31-Mar-18 05:16 20.527048 -69.854530 307 32100ft 312kts
31-Mar-18 05:17 20.579858 -69.927734 307 32100ft 312kts
31-Mar-18 05:18 20.632848 -70.001283 307 32100ft 312kts
31-Mar-18 05:19 20.685633 -70.074640 307 32100ft 312kts
31-Mar-18 05:20 20.738540 -70.148263 307 32100ft 312kts
31-Mar-18 05:21 20.791379 -70.221885 307 32100ft 312kts
31-Mar-18 05:22 20.844056 -70.295379 307 32100ft 312kts
31-Mar-18 05:23 20.896868 -70.369154 307 32100ft 312kts
31-Mar-18 05:24 20.949583 -70.442892 307 32100ft 312kts
31-Mar-18 05:25 21.002254 -70.516663 307 32100ft 312kts
31-Mar-18 05:26 21.054837 -70.590409 307 32100ft 312kts
31-Mar-18 05:27 21.106208 -70.662548 306 32100ft 312kts
31-Mar-18 05:28 21.158792 -70.736480 306 32100ft 312kts
31-Mar-18 05:29 21.211257 -70.810347 306 32100ft 312kts
31-Mar-18 05:30 21.263919 -70.884590 306 32100ft 312kts
31-Mar-18 05:31 21.316241 -70.958452 306 32100ft 312kts
31-Mar-18 05:32 21.368769 -71.032703 306 32100ft 312kts
31-Mar-18 05:33 21.421203 -71.106922 306 32100ft 312kts
31-Mar-18 05:34 21.467673 -71.185633 299 32072ft 313kts
31-Mar-18 05:35 21.510995 -71.266559 299 32072ft 312kts
31-Mar-18 05:36 21.554012 -71.347406 299 32072ft 312kts
31-Mar-18 05:37 21.597011 -71.428380 299 32072ft 312kts
31-Mar-18 05:38 21.640011 -71.509482 299 32072ft 312kts
31-Mar-18 05:39 21.682881 -71.590462 299 32072ft 312kts
31-Mar-18 05:40 21.725932 -71.671907 299 32072ft 312kts
31-Mar-18 05:41 21.768704 -71.752942 299 32072ft 312kts
31-Mar-18 05:42 21.811554 -71.834252 299 32072ft 312kts
31-Mar-18 05:43 21.854404 -71.915688 299 32072ft 312kts
31-Mar-18 05:44 21.897060 -71.996882 299 32072ft 312kts
31-Mar-18 05:45 21.939826 -72.078408 299 32072ft 312kts
31-Mar-18 05:46 21.982433 -72.159758 299 32072ft 312kts
31-Mar-18 05:47 22.025028 -72.241217 299 32072ft 312kts
31-Mar-18 05:48 22.067541 -72.322649 299 32072ft 312kts
31-Mar-18 05:49 22.109893 -72.403899 299 32072ft 313kts
31-Mar-18 05:50 22.151252 -72.486448 297 32072ft 313kts
31-Mar-18 05:51 22.191446 -72.569659 297 32072ft 313kts
31-Mar-18 05:52 22.231396 -72.652611 296 32072ft 313kts
31-Mar-18 05:53 22.274105 -72.734376 299 32072ft 313kts
31-Mar-18 05:54 22.317273 -72.815734 299 32072ft 313kts
31-Mar-18 05:55 22.360593 -72.897442 299 32072ft 313kts
31-Mar-18 05:56 22.403706 -72.978879 299 32072ft 313kts
31-Mar-18 05:57 22.446719 -73.060261 299 32072ft 313kts
31-Mar-18 05:58 22.489850 -73.141994 299 32072ft 313kts
31-Mar-18 05:59 22.532831 -73.223574 299 32072ft 313kts
31-Mar-18 06:00 22.575840 -73.305336 299 32072ft 313kts
31-Mar-18 06:01 22.618815 -73.387163 299 32072ft 313kts
31-Mar-18 06:02 22.661708 -73.468963 299 32072ft 313kts
31-Mar-18 06:03 22.704702 -73.551086 299 32072ft 313kts
31-Mar-18 06:04 22.747474 -73.632917 299 32072ft 313kts
31-Mar-18 06:05 22.790498 -73.715359 299 32072ft 313kts
31-Mar-18 06:06 22.833194 -73.797305 299 32072ft 313kts
31-Mar-18 06:07 22.875952 -73.879506 299 32072ft 313kts
31-Mar-18 06:08 22.918534 -73.961500 299 32072ft 313kts
31-Mar-18 06:09 22.961232 -74.043851 299 32072ft 313kts
31-Mar-18 06:10 23.003746 -74.125981 299 32072ft 313kts
31-Mar-18 06:11 23.046333 -74.208385 299 32072ft 313kts
31-Mar-18 06:12 23.088770 -74.290635 299 32072ft 313kts
31-Mar-18 06:13 23.131144 -74.372889 299 32072ft 313kts
31-Mar-18 06:14 23.173286 -74.455610 298 32072ft 313kts
31-Mar-18 06:15 23.215276 -74.538343 298 32072ft 313kts
31-Mar-18 06:16 23.257302 -74.621293 298 32072ft 313kts
31-Mar-18 06:17 23.299027 -74.703793 298 32072ft 313kts
31-Mar-18 06:18 23.340868 -74.786657 298 32072ft 313kts
31-Mar-18 06:19 23.382639 -74.869520 298 32072ft 313kts
31-Mar-18 06:20 23.424524 -74.952748 298 32072ft 313kts
31-Mar-18 06:21 23.464621 -75.032498 298 32069ft 285kts
31-Mar-18 06:22 23.501293 -75.105622 298 32071ft 267kts
31-Mar-18 06:23 23.536290 -75.175516 298 32072ft 259kts
31-Mar-18 06:24 23.570394 -75.243705 298 32072ft 255kts
31-Mar-18 06:25 23.610027 -75.307213 305 32072ft 253kts
31-Mar-18 06:26 23.651596 -75.369032 306 32072ft 252kts
31-Mar-18 06:27 23.693041 -75.430486 306 32072ft 252kts
31-Mar-18 06:28 23.734441 -75.491907 306 32072ft 251kts
31-Mar-18 06:29 23.775882 -75.553456 306 32072ft 251kts
31-Mar-18 06:30 23.817178 -75.614865 306 32072ft 251kts
31-Mar-18 06:31 23.858511 -75.676401 305 32072ft 251kts
31-Mar-18 06:32 23.899869 -75.738050 305 32072ft 251kts
31-Mar-18 06:33 23.941035 -75.799490 305 32072ft 251kts
31-Mar-18 06:34 23.982279 -75.861123 305 32072ft 251kts
31-Mar-18 06:35 24.023406 -75.922659 305 32072ft 251kts
31-Mar-18 06:36 24.064710 -75.984539 305 32072ft 251kts
31-Mar-18 06:37 24.105609 -76.045891 305 32072ft 251kts
31-Mar-18 06:38 24.146784 -76.107733 305 32072ft 251kts
31-Mar-18 06:39 24.187505 -76.168970 305 32191ft 248kts
31-Mar-18 06:40 24.228228 -76.230284 305 32191ft 250kts
31-Mar-18 06:41 24.269110 -76.291916 305 32191ft 250kts
31-Mar-18 06:42 24.309977 -76.353602 305 32191ft 251kts
31-Mar-18 06:43 24.350999 -76.415600 305 32191ft 251kts
31-Mar-18 06:44 24.391922 -76.477528 305 32191ft 251kts
31-Mar-18 06:45 24.432934 -76.539668 305 32191ft 251kts
31-Mar-18 06:46 24.473869 -76.601772 305 32191ft 251kts
31-Mar-18 06:47 24.514804 -76.663954 305 32191ft 251kts
31-Mar-18 06:48 24.555710 -76.726170 305 32191ft 251kts
31-Mar-18 06:49 24.596443 -76.788203 305 32191ft 251kts
31-Mar-18 06:50 24.637202 -76.850355 305 32191ft 251kts
31-Mar-18 06:51 24.678185 -76.912931 305 32191ft 251kts
31-Mar-18 06:52 24.718945 -76.975246 305 32191ft 251kts
31-Mar-18 06:53 24.759661 -77.037578 305 32191ft 251kts
31-Mar-18 06:54 24.800476 -77.100140 305 32191ft 251kts
31-Mar-18 06:55 24.841179 -77.162613 305 32191ft 251kts
31-Mar-18 06:56 24.881781 -77.225012 305 32191ft 251kts
31-Mar-18 06:57 24.922405 -77.287525 305 32191ft 251kts
31-Mar-18 06:58 24.963081 -77.350201 305 32191ft 251kts
31-Mar-18 06:59 25.003623 -77.412751 305 32191ft 251kts
31-Mar-18 07:00 25.052380 -77.467156 322 32191ft 251kts
31-Mar-18 07:01 25.108277 -77.513029 323 32191ft 251kts
31-Mar-18 07:02 25.164614 -77.558609 323 32191ft 251kts
31-Mar-18 07:03 25.220904 -77.604093 323 32191ft 252kts
31-Mar-18 07:04 25.277400 -77.649779 323 32191ft 252kts
31-Mar-18 07:05 25.333923 -77.695540 323 32191ft 252kts
31-Mar-18 07:06 25.390426 -77.741336 323 32191ft 252kts
31-Mar-18 07:07 25.446855 -77.787125 323 32191ft 252kts
31-Mar-18 07:08 25.503113 -77.832830 323 32191ft 252kts
31-Mar-18 07:09 25.559542 -77.878729 323 32191ft 252kts
31-Mar-18 07:10 25.615905 -77.924629 323 32191ft 252kts
31-Mar-18 07:11 25.671611 -77.970048 323 32191ft 252kts
31-Mar-18 07:12 25.728373 -78.016384 323 32191ft 252kts
31-Mar-18 07:13 25.784715 -78.062432 323 32191ft 252kts
31-Mar-18 07:14 25.841136 -78.108601 323 32191ft 252kts
31-Mar-18 07:15 25.897407 -78.154703 323 32191ft 252kts
31-Mar-18 07:16 25.953550 -78.200756 323 32191ft 252kts
31-Mar-18 07:17 26.009762 -78.246921 323 32191ft 252kts
31-Mar-18 07:18 26.065971 -78.293141 323 32191ft 252kts
31-Mar-18 07:19 26.122139 -78.339382 323 32200ft 251kts
31-Mar-18 07:20 26.178366 -78.385727 323 32200ft 252kts
31-Mar-18 07:21 26.234607 -78.432142 323 32200ft 252kts
31-Mar-18 07:22 26.290768 -78.478549 323 32200ft 252kts
31-Mar-18 07:23 26.346981 -78.525056 323 32200ft 252kts
31-Mar-18 07:24 26.403153 -78.571588 323 32200ft 252kts
31-Mar-18 07:25 26.459372 -78.618216 323 32200ft 252kts
31-Mar-18 07:26 26.511367 -78.661392 322 32200ft 252kts
31-Mar-18 07:27 26.529461 -78.677675 307 32196ft 252kts
31-Mar-18 07:28 26.514191 -78.726805 211 32213ft 250kts
31-Mar-18 07:29 26.455339 -78.768391 211 32201ft 251kts
31-Mar-18 07:30 26.396439 -78.809933 211 32200ft 252kts
31-Mar-18 07:31 26.347033 -78.844735 211 32200ft 252kts
31-Mar-18 07:32 26.277923 -78.893356 211 32200ft 252kts
31-Mar-18 07:33 26.218809 -78.934889 211 32200ft 252kts
31-Mar-18 07:34 26.159676 -78.976405 211 32210ft 252kts
31-Mar-18 07:35 26.110303 -79.011035 211 32210ft 252kts
31-Mar-18 07:36 26.051199 -79.052445 211 32210ft 252kts
31-Mar-18 07:37 25.991898 -79.093943 211 32210ft 252kts
31-Mar-18 07:38 25.932654 -79.135338 211 32210ft 252kts
31-Mar-18 07:39 25.863704 -79.183401 211 32210ft 252kts
31-Mar-18 07:40 25.815679 -79.219308 233 32194ft 252kts
31-Mar-18 07:41 25.829969 -79.290371 288 32213ft 251kts
31-Mar-18 07:42 25.845706 -79.364865 280 31039ft 254kts
31-Mar-18 07:43 25.856953 -79.443469 278 29055ft 264kts
31-Mar-18 07:44 25.867576 -79.524647 278 27054ft 267kts
31-Mar-18 07:45 25.878080 -79.606436 278 25054ft 268kts
31-Mar-18 07:46 25.888463 -79.687810 277 23065ft 268kts
31-Mar-18 07:47 25.909145 -79.766007 294 21067ft 266kts
31-Mar-18 07:48 25.940030 -79.840065 295 19068ft 264kts
31-Mar-18 07:49 25.971117 -79.913392 295 17068ft 262kts
31-Mar-18 07:50 25.987544 -79.990222 273 15069ft 259kts
31-Mar-18 07:51 25.990170 -80.066120 271 14195ft 218kts
31-Mar-18 07:52 25.991654 -80.125628 271 14195ft 170kts
31-Mar-18 07:53 25.992721 -80.172504 271 14195ft 137kts
31-Mar-18 07:54 25.993529 -80.210164 269 14182ft 106kts
31-Mar-18 07:55 25.994214 -80.251082 271 12091ft 217kts
31-Mar-18 07:56 25.995656 -80.331138 270 7718ft 285kts
31-Mar-18 07:57 26.006174 -80.416220 313 3108ft 288kts
31-Mar-18 07:58 26.054364 -80.453426 255 2188ft 179kts
31-Mar-18 07:59 26.021161 -80.464748 131 2215ft 197kts
31-Mar-18 08:00 25.981630 -80.415928 121 2024ft 230kts
31-Mar-18 08:01 25.951482 -80.361595 121 2009ft 189kts
31-Mar-18 08:02 25.931285 -80.326030 120 1248ft 103kts
31-Mar-18 08:03 25.914431 -80.295607 122 238ft 118kts
31-Mar-18 08:04 25.905536 -80.277639 51 7ft 16kts
31-Mar-18 08:05 25.906449 -80.276470 288 7ft 0kts
31-Mar-18 08:06 25.906449 -80.276470 288 7ft 0kts
31-Mar-18 08:07 25.906449 -80.276470 288 7ft 0kts
31-Mar-18 08:08 25.906449 -80.276471 288 7ft 0kts
31-Mar-18 08:09 25.906449 -80.276471 288 7ft 0kts
31-Mar-18 08:10 25.906449 -80.276471 288 7ft 0kts
31-Mar-18 08:11 25.905719 -80.277971 317 7ft 17kts
31-Mar-18 08:12 25.909714 -80.284933 302 7ft 32kts
31-Mar-18 08:13 25.902247 -80.272280 122 168ft 158kts
31-Mar-18 08:14 25.871687 -80.291917 283 2035ft 194kts

Navigation Log

Ident Type
Flight plan parsing failed, navigation log unavailable